sensor_id;sensor_type;location;lat;lon;timestamp;P1;durP1;ratioP1;P2;durP2;ratioP2
58756;SDS011;44527;47.460;19.016;2023-12-28T00:02:12;34.03;;;13.43;;
58756;SDS011;44527;47.460;19.016;2023-12-28T00:05:16;29.20;;;12.50;;
58756;SDS011;44527;47.460;19.016;2023-12-28T00:08:19;29.48;;;12.70;;
58756;SDS011;44527;47.460;19.016;2023-12-28T00:11:22;24.73;;;12.52;;
58756;SDS011;44527;47.460;19.016;2023-12-28T00:14:25;25.70;;;12.55;;
58756;SDS011;44527;47.460;19.016;2023-12-28T00:17:28;30.30;;;12.70;;
58756;SDS011;44527;47.460;19.016;2023-12-28T00:20:31;30.67;;;12.98;;
58756;SDS011;44527;47.460;19.016;2023-12-28T00:23:34;27.50;;;12.07;;
58756;SDS011;44527;47.460;19.016;2023-12-28T00:26:37;28.10;;;13.50;;
58756;SDS011;44527;47.460;19.016;2023-12-28T00:29:41;22.65;;;12.80;;
58756;SDS011;44527;47.460;19.016;2023-12-28T00:32:45;33.17;;;12.90;;
58756;SDS011;44527;47.460;19.016;2023-12-28T00:35:49;26.70;;;11.73;;
58756;SDS011;44527;47.460;19.016;2023-12-28T00:38:52;29.58;;;13.13;;
58756;SDS011;44527;47.460;19.016;2023-12-28T00:41:58;26.62;;;12.52;;
58756;SDS011;44527;47.460;19.016;2023-12-28T00:45:08;28.45;;;12.20;;
58756;SDS011;44527;47.460;19.016;2023-12-28T00:48:15;22.90;;;11.95;;
58756;SDS011;44527;47.460;19.016;2023-12-28T00:51:20;25.42;;;12.48;;
58756;SDS011;44527;47.460;19.016;2023-12-28T00:54:33;28.50;;;12.07;;
58756;SDS011;44527;47.460;19.016;2023-12-28T00:57:43;28.10;;;11.87;;
58756;SDS011;44527;47.460;19.016;2023-12-28T01:00:51;25.33;;;12.85;;
58756;SDS011;44527;47.460;19.016;2023-12-28T01:04:03;29.87;;;11.85;;
58756;SDS011;44527;47.460;19.016;2023-12-28T01:07:10;21.35;;;11.90;;
58756;SDS011;44527;47.460;19.016;2023-12-28T01:10:16;22.40;;;12.48;;
58756;SDS011;44527;47.460;19.016;2023-12-28T01:13:27;22.13;;;11.20;;
58756;SDS011;44527;47.460;19.016;2023-12-28T01:16:36;21.98;;;11.30;;
58756;SDS011;44527;47.460;19.016;2023-12-28T01:19:42;21.67;;;10.85;;
58756;SDS011;44527;47.460;19.016;2023-12-28T01:22:51;23.65;;;11.38;;
58756;SDS011;44527;47.460;19.016;2023-12-28T01:25:59;21.87;;;11.15;;
58756;SDS011;44527;47.460;19.016;2023-12-28T01:29:05;25.02;;;11.18;;
58756;SDS011;44527;47.460;19.016;2023-12-28T01:32:13;29.30;;;12.18;;
58756;SDS011;44527;47.460;19.016;2023-12-28T01:35:18;26.95;;;11.82;;
58756;SDS011;44527;47.460;19.016;2023-12-28T01:38:22;27.42;;;11.50;;
58756;SDS011;44527;47.460;19.016;2023-12-28T01:41:36;29.02;;;11.05;;
58756;SDS011;44527;47.460;19.016;2023-12-28T01:47:49;23.62;;;11.18;;
58756;SDS011;44527;47.460;19.016;2023-12-28T01:51:02;21.33;;;10.57;;
58756;SDS011;44527;47.460;19.016;2023-12-28T01:54:07;22.02;;;10.57;;
58756;SDS011;44527;47.460;19.016;2023-12-28T01:57:22;22.33;;;11.02;;
58756;SDS011;44527;47.460;19.016;2023-12-28T02:00:30;20.08;;;10.43;;
58756;SDS011;44527;47.460;19.016;2023-12-28T02:03:42;25.73;;;10.38;;
58756;SDS011;44527;47.460;19.016;2023-12-28T02:06:52;22.58;;;11.15;;
58756;SDS011;44527;47.460;19.016;2023-12-28T02:10:11;26.48;;;10.68;;
58756;SDS011;44527;47.460;19.016;2023-12-28T02:13:18;20.02;;;10.55;;
58756;SDS011;44527;47.460;19.016;2023-12-28T02:16:36;21.50;;;10.57;;
58756;SDS011;44527;47.460;19.016;2023-12-28T02:19:59;19.10;;;10.75;;
58756;SDS011;44527;47.460;19.016;2023-12-28T02:23:11;29.23;;;11.02;;
58756;SDS011;44527;47.460;19.016;2023-12-28T02:26:19;25.00;;;10.50;;
58756;SDS011;44527;47.460;19.016;2023-12-28T02:29:30;23.52;;;10.25;;
58756;SDS011;44527;47.460;19.016;2023-12-28T02:36:36;20.42;;;9.98;;
58756;SDS011;44527;47.460;19.016;2023-12-28T02:40:00;22.45;;;10.95;;
58756;SDS011;44527;47.460;19.016;2023-12-28T02:43:20;23.75;;;11.23;;
58756;SDS011;44527;47.460;19.016;2023-12-28T02:46:41;17.73;;;9.57;;
58756;SDS011;44527;47.460;19.016;2023-12-28T02:50:09;16.05;;;8.27;;
58756;SDS011;44527;47.460;19.016;2023-12-28T02:53:19;19.33;;;10.50;;
58756;SDS011;44527;47.460;19.016;2023-12-28T02:56:43;21.70;;;10.07;;
58756;SDS011;44527;47.460;19.016;2023-12-28T03:00:00;21.37;;;9.77;;
58756;SDS011;44527;47.460;19.016;2023-12-28T03:03:15;21.10;;;9.02;;
58756;SDS011;44527;47.460;19.016;2023-12-28T03:06:24;21.73;;;9.10;;
58756;SDS011;44527;47.460;19.016;2023-12-28T03:09:53;17.40;;;9.20;;
58756;SDS011;44527;47.460;19.016;2023-12-28T03:13:09;19.77;;;9.23;;
58756;SDS011;44527;47.460;19.016;2023-12-28T03:16:25;19.02;;;9.60;;
58756;SDS011;44527;47.460;19.016;2023-12-28T03:19:36;20.27;;;9.73;;
58756;SDS011;44527;47.460;19.016;2023-12-28T03:22:44;17.98;;;9.38;;
58756;SDS011;44527;47.460;19.016;2023-12-28T03:26:02;23.60;;;9.88;;
58756;SDS011;44527;47.460;19.016;2023-12-28T03:29:45;19.10;;;8.68;;
58756;SDS011;44527;47.460;19.016;2023-12-28T03:33:04;17.52;;;9.30;;
58756;SDS011;44527;47.460;19.016;2023-12-28T03:36:45;18.10;;;10.07;;
58756;SDS011;44527;47.460;19.016;2023-12-28T03:39:52;16.95;;;8.95;;
58756;SDS011;44527;47.460;19.016;2023-12-28T03:43:07;14.82;;;8.50;;
58756;SDS011;44527;47.460;19.016;2023-12-28T03:46:17;18.33;;;9.10;;
58756;SDS011;44527;47.460;19.016;2023-12-28T03:49:33;16.35;;;8.63;;
58756;SDS011;44527;47.460;19.016;2023-12-28T03:53:11;20.62;;;9.82;;
58756;SDS011;44527;47.460;19.016;2023-12-28T03:56:25;16.27;;;9.10;;
58756;SDS011;44527;47.460;19.016;2023-12-28T03:59:58;17.48;;;9.13;;
58756;SDS011;44527;47.460;19.016;2023-12-28T04:03:13;19.48;;;9.15;;
58756;SDS011;44527;47.460;19.016;2023-12-28T04:06:40;20.65;;;8.52;;
58756;SDS011;44527;47.460;19.016;2023-12-28T04:09:54;19.80;;;9.32;;
58756;SDS011;44527;47.460;19.016;2023-12-28T04:13:12;18.55;;;9.50;;
58756;SDS011;44527;47.460;19.016;2023-12-28T04:16:41;20.00;;;9.65;;
58756;SDS011;44527;47.460;19.016;2023-12-28T04:20:07;19.92;;;9.57;;
58756;SDS011;44527;47.460;19.016;2023-12-28T04:23:39;17.25;;;8.73;;
58756;SDS011;44527;47.460;19.016;2023-12-28T04:26:58;18.77;;;8.93;;
58756;SDS011;44527;47.460;19.016;2023-12-28T04:30:32;22.05;;;9.35;;
58756;SDS011;44527;47.460;19.016;2023-12-28T04:33:58;20.02;;;8.85;;
58756;SDS011;44527;47.460;19.016;2023-12-28T04:37:24;18.60;;;9.25;;
58756;SDS011;44527;47.460;19.016;2023-12-28T04:41:02;17.45;;;9.07;;
58756;SDS011;44527;47.460;19.016;2023-12-28T04:48:24;20.00;;;8.95;;
58756;SDS011;44527;47.460;19.016;2023-12-28T04:51:53;19.95;;;9.02;;
58756;SDS011;44527;47.460;19.016;2023-12-28T04:55:16;19.02;;;9.10;;
58756;SDS011;44527;47.460;19.016;2023-12-28T04:58:34;15.95;;;8.43;;
